Maersk Danang — A8PS5 — position and weather

sailwx.info

Track history (hours):
 
Tides and Currents Weather Stations Pressure Air Temp Water Temp Dewpoint Dewpoint Depression Visibility Wind Speed Wind Dir Waves Ship Positions

Maersk Danang

Last reported at 2014-Dec-06 09:32 UTC. Time now 2014-Dec-20 16:29 UTC.
Position N 36°35' E 013°54'.
Warning: this ship's position is 14 days out of date.

Length 293 m; draft 12 m.

Type: Ship (hazmat cat A). MMSI: 636091595.

Date/timePositionNaut miles runAvg speedWind from/ knotsBaromVisibWave heightAir tempDewpointWater temp
2014-Dec-06 09:32N 36°35' E 013°54'2121.0
2014-Dec-06 08:32N 36°43' E 013°29'90020.9
2014-Dec-04 13:28N 36°02' W 005°08'1414.9
2014-Dec-04 12:33N 36°07' W 005°23'3 2.5
2014-Dec-04 11:30N 36°08' W 005°26'0 0.0
2014-Dec-04 10:32N 36°08' W 005°26'0 0.0
2014-Dec-04 09:29N 36°08' W 005°26'0 0.0
2014-Dec-04 08:31N 36°08' W 005°26'0 0.0
2014-Dec-04 07:31N 36°08' W 005°26'0 0.0
2014-Dec-04 06:33N 36°08' W 005°26'0 0.0
2014-Dec-04 05:33N 36°08' W 005°26'0 0.0
2014-Dec-04 04:33N 36°08' W 005°26'0 0.0
2014-Dec-04 03:32N 36°08' W 005°26'0 0.0
2014-Dec-04 02:29N 36°08' W 005°26'0 0.0
2014-Dec-04 01:31N 36°08' W 005°26'0 0.0
2014-Dec-04 00:31N 36°08' W 005°26'0 0.0
2014-Dec-03 23:33N 36°08' W 005°26'0 0.0
2014-Dec-03 22:32N 36°08' W 005°26'0 0.0
2014-Dec-03 21:32N 36°08' W 005°26'0 0.0
2014-Dec-03 20:32N 36°08' W 005°26'0 0.0
2014-Dec-03 19:28N 36°08' W 005°26'0 0.0
2014-Dec-03 18:31N 36°08' W 005°26'2 2.1
2014-Dec-03 17:28N 36°10' W 005°24'0 0.0
2014-Dec-03 16:31N 36°10' W 005°24'0 0.0
2014-Dec-03 15:31N 36°10' W 005°24'0 0.0
2014-Dec-03 14:33N 36°10' W 005°24'0 0.0
2014-Dec-03 13:33N 36°10' W 005°24'0 0.0
2014-Dec-03 12:04N 36°10' W 005°24'0 0.0
2014-Dec-03 11:33N 36°10' W 005°24'1 1.0
2014-Dec-03 10:10N 36°09' W 005°24'4 6.6
2014-Dec-03 09:30N 36°04' W 005°22'9 9.7
2014-Dec-03 08:34N 35°58' W 005°30'82418.6
2014-Dec-01 12:16N 37°53' W 022°30'3919.6
2014-Dec-01 10:16N 37°55' W 023°19'2218.4
2014-Dec-01 09:04N 37°55' W 023°48'918.3
2014-Dec-01 08:33N 37°56' W 023°59'1818.3
2014-Dec-01 07:33N 37°58' W 024°22'1818.5
2014-Dec-01 06:33N 37°59' W 024°45'1818.3
2014-Dec-01 05:33N 38°00' W 025°09'1818.4
2014-Dec-01 04:33N 38°01' W 025°32'1918.8
2014-Dec-01 03:33N 38°02' W 025°56'1818.4
2014-Dec-01 02:33N 38°03' W 026°19'1818.5
2014-Dec-01 01:33N 38°03' W 026°43'1918.7
2014-Dec-01 00:33N 38°04' W 027°07'1919.0
2014-Nov-30 23:34N 38°04' W 027°31'1918.7
2014-Nov-30 22:34N 38°05' W 027°54'1919.0
2014-Nov-30 21:33N 38°05' W 028°18'1919.1
2014-Nov-30 20:33N 38°05' W 028°43'1918.8
2014-Nov-30 19:33N 38°05' W 029°07'1918.9
2014-Nov-30 18:33N 38°06' W 029°31'1918.7
2014-Nov-30 17:33N 38°05' W 029°54'1918.6
2014-Nov-30 16:33N 38°05' W 030°18'1918.6
2014-Nov-30 15:33N 38°05' W 030°42'1918.5
2014-Nov-30 14:32N 38°05' W 031°06'2018.4
2014-Nov-30 13:26N 38°05' W 031°31'3818.5
2014-Nov-30 11:24N 38°04' W 032°19'  
Track history (hours):
 
Tides and Currents Weather Stations Pressure Air Temp Water Temp Dewpoint Dewpoint Depression Visibility Wind Speed Wind Dir Waves Ship Positions

Maersk Danang

Last reported at 2014-Dec-06 09:32 UTC. Time now 2014-Dec-20 16:29 UTC.
Position N 36°35' E 013°54'.
Warning: this ship's position is 14 days out of date.

Length 293 m; draft 12 m.

Type: Ship (hazmat cat A). MMSI: 636091595.

Date/timePositionNaut miles runAvg speedWind from/ knotsBaromVisibWave heightAir tempDewpointWater temp
2014-Dec-06 09:32N 36°35' E 013°54'2121.0
2014-Dec-06 08:32N 36°43' E 013°29'90020.9
2014-Dec-04 13:28N 36°02' W 005°08'1414.9
2014-Dec-04 12:33N 36°07' W 005°23'3 2.5
2014-Dec-04 11:30N 36°08' W 005°26'0 0.0
2014-Dec-04 10:32N 36°08' W 005°26'0 0.0
2014-Dec-04 09:29N 36°08' W 005°26'0 0.0
2014-Dec-04 08:31N 36°08' W 005°26'0 0.0
2014-Dec-04 07:31N 36°08' W 005°26'0 0.0
2014-Dec-04 06:33N 36°08' W 005°26'0 0.0
2014-Dec-04 05:33N 36°08' W 005°26'0 0.0
2014-Dec-04 04:33N 36°08' W 005°26'0 0.0
2014-Dec-04 03:32N 36°08' W 005°26'0 0.0
2014-Dec-04 02:29N 36°08' W 005°26'0 0.0
2014-Dec-04 01:31N 36°08' W 005°26'0 0.0
2014-Dec-04 00:31N 36°08' W 005°26'0 0.0
2014-Dec-03 23:33N 36°08' W 005°26'0 0.0
2014-Dec-03 22:32N 36°08' W 005°26'0 0.0
2014-Dec-03 21:32N 36°08' W 005°26'0 0.0
2014-Dec-03 20:32N 36°08' W 005°26'0 0.0
2014-Dec-03 19:28N 36°08' W 005°26'0 0.0
2014-Dec-03 18:31N 36°08' W 005°26'2 2.1
2014-Dec-03 17:28N 36°10' W 005°24'0 0.0
2014-Dec-03 16:31N 36°10' W 005°24'0 0.0
2014-Dec-03 15:31N 36°10' W 005°24'0 0.0
2014-Dec-03 14:33N 36°10' W 005°24'0 0.0
2014-Dec-03 13:33N 36°10' W 005°24'0 0.0
2014-Dec-03 12:04N 36°10' W 005°24'0 0.0
2014-Dec-03 11:33N 36°10' W 005°24'1 1.0
2014-Dec-03 10:10N 36°09' W 005°24'4 6.6
2014-Dec-03 09:30N 36°04' W 005°22'9 9.7
2014-Dec-03 08:34N 35°58' W 005°30'82418.6
2014-Dec-01 12:16N 37°53' W 022°30'3919.6
2014-Dec-01 10:16N 37°55' W 023°19'2218.4
2014-Dec-01 09:04N 37°55' W 023°48'918.3
2014-Dec-01 08:33N 37°56' W 023°59'1818.3
2014-Dec-01 07:33N 37°58' W 024°22'1818.5
2014-Dec-01 06:33N 37°59' W 024°45'1818.3
2014-Dec-01 05:33N 38°00' W 025°09'1818.4
2014-Dec-01 04:33N 38°01' W 025°32'1918.8
2014-Dec-01 03:33N 38°02' W 025°56'1818.4
2014-Dec-01 02:33N 38°03' W 026°19'1818.5
2014-Dec-01 01:33N 38°03' W 026°43'1918.7
2014-Dec-01 00:33N 38°04' W 027°07'1919.0
2014-Nov-30 23:34N 38°04' W 027°31'1918.7
2014-Nov-30 22:34N 38°05' W 027°54'1919.0
2014-Nov-30 21:33N 38°05' W 028°18'1919.1
2014-Nov-30 20:33N 38°05' W 028°43'1918.8
2014-Nov-30 19:33N 38°05' W 029°07'1918.9
2014-Nov-30 18:33N 38°06' W 029°31'1918.7
2014-Nov-30 17:33N 38°05' W 029°54'1918.6
2014-Nov-30 16:33N 38°05' W 030°18'1918.6
2014-Nov-30 15:33N 38°05' W 030°42'1918.5
2014-Nov-30 14:32N 38°05' W 031°06'2018.4
2014-Nov-30 13:26N 38°05' W 031°31'3818.5
2014-Nov-30 11:24N 38°04' W 032°19'  

Dump ship's entire track history